Grindsted, Denmark
Current Conditions -  °F | °C
As of 1:20 PM on Monday 26 Jan 2015 (Local Time) from EKBI Reporting Station
Light Rain Light Rain  
Wind Chill: 36°   Ceiling: 300
Heat Index: 41°   Visibility: 3mi
Dew Point: 41°   Wind: 8mph
Humidity: 100%   Direction: 200°SSW
Pressure: 29.77"   Gusts: NA
Location:  55.75°N, 8.91°E
Report Text: EKBI 261220Z 20007KT 170V230 5000 -DZRA BR BKN003 05/05 Q1008
Loading
Personal Weather Stations






























Interactive Weather Map New forecast layout! Learn more

10-Day Weather Forecast

Advertisements
Track Severe Weather on mobile